createdAt,value
2023-05-10T00:01:27.138Z,64.63
2023-05-10T00:06:28.940Z,64.80
2023-05-10T00:11:30.632Z,64.87
2023-05-10T00:16:32.402Z,65.28
2023-05-10T00:21:34.779Z,65.20
2023-05-10T00:26:36.497Z,65.18
2023-05-10T00:31:38.580Z,65.53
2023-05-10T00:36:40.264Z,65.55
2023-05-10T00:41:42.630Z,66.08
2023-05-10T00:46:44.584Z,66.13
2023-05-10T00:51:46.827Z,65.95
2023-05-10T00:56:50.189Z,66.25
2023-05-10T01:01:53.085Z,66.50
2023-05-10T01:06:54.924Z,66.51
2023-05-10T01:11:57.495Z,66.65
2023-05-10T01:16:59.876Z,66.99
2023-05-10T01:22:20.028Z,67.44
2023-05-10T01:27:48.810Z,67.43
2023-05-10T01:33:15.597Z,67.11
2023-05-10T01:38:43.827Z,67.59
2023-05-10T01:44:13.625Z,67.67
2023-05-10T01:49:24.581Z,67.78
2023-05-10T01:54:28.180Z,68.36
2023-05-10T01:59:37.217Z,68.82
2023-05-10T02:04:41.851Z,69.41
2023-05-10T02:09:48.484Z,69.21
2023-05-10T02:14:52.187Z,69.52
2023-05-10T02:19:56.206Z,69.50
2023-05-10T02:25:00.528Z,69.80
2023-05-10T02:30:04.499Z,70.72
2023-05-10T02:35:07.229Z,70.51
2023-05-10T02:40:10.945Z,70.53
2023-05-10T02:45:15.529Z,71.34
2023-05-10T02:50:17.989Z,71.98
2023-05-10T02:55:23.859Z,72.81
2023-05-10T03:00:26.784Z,73.13
2023-05-10T03:05:28.536Z,73.57
2023-05-10T03:10:33.650Z,73.32
2023-05-10T03:15:48.608Z,73.94
2023-05-10T03:20:56.917Z,74.71
2023-05-10T03:25:59.611Z,74.99
2023-05-10T03:31:02.904Z,75.36
2023-05-10T03:36:06.545Z,75.04
2023-05-10T03:41:08.610Z,73.64
2023-05-10T03:46:10.970Z,71.96
2023-05-10T03:51:13.042Z,69.65
2023-05-10T03:56:15.021Z,67.83
2023-05-10T04:07:14.100Z,64.78
2023-05-10T04:12:16.126Z,63.07
2023-05-10T04:17:17.805Z,61.74
2023-05-10T04:22:19.473Z,60.91
2023-05-10T04:27:21.194Z,59.62
2023-05-10T04:32:22.898Z,57.79
2023-05-10T04:37:24.614Z,56.84
2023-05-10T04:42:26.319Z,55.87
2023-05-10T04:47:28.090Z,54.91
2023-05-10T04:52:29.899Z,54.17
2023-05-10T04:57:31.548Z,53.46
2023-05-10T05:02:33.228Z,52.73
2023-05-10T05:07:35.056Z,52.18
2023-05-10T05:12:36.737Z,51.42
2023-05-10T05:17:38.474Z,51.12
2023-05-10T05:22:40.218Z,51.18
2023-05-10T05:27:42.270Z,51.54
2023-05-10T05:32:44.005Z,51.44
2023-05-10T05:37:45.732Z,51.26
2023-05-10T05:42:47.418Z,50.44
2023-05-10T05:47:49.547Z,50.16
2023-05-10T05:52:51.340Z,49.54
2023-05-10T05:57:53.174Z,48.73
2023-05-10T06:02:54.985Z,46.99
2023-05-10T06:07:57.488Z,45.45
2023-05-10T06:12:59.269Z,45.60
2023-05-10T06:18:01.478Z,44.64
2023-05-10T06:23:03.359Z,43.80
2023-05-10T06:28:05.147Z,42.09
2023-05-10T06:33:06.898Z,41.62
2023-05-10T06:38:08.711Z,41.51
2023-05-10T06:43:10.933Z,41.55
2023-05-10T06:48:12.680Z,41.62
2023-05-10T06:53:14.511Z,41.51
2023-05-10T06:58:16.333Z,41.26
2023-05-10T07:03:18.115Z,40.91
2023-05-10T07:08:19.942Z,40.61
2023-05-10T07:13:21.766Z,38.92
2023-05-10T07:18:23.823Z,38.54
2023-05-10T07:23:25.770Z,37.47
2023-05-10T07:28:27.573Z,36.70
2023-05-10T07:33:29.227Z,36.42
2023-05-10T07:38:30.867Z,35.29
2023-05-10T07:43:32.504Z,34.47
2023-05-10T07:48:34.255Z,34.38
2023-05-10T07:53:36.445Z,34.10
2023-05-10T07:58:38.170Z,34.03
2023-05-10T08:03:39.950Z,33.49
2023-05-10T08:08:42.191Z,33.53
2023-05-10T08:13:44.559Z,33.01
2023-05-10T08:18:48.081Z,32.51
2023-05-10T08:23:50.319Z,32.32
2023-05-10T08:28:52.016Z,32.59
2023-05-10T08:34:03.894Z,32.55
2023-05-10T08:39:07.733Z,31.90
2023-05-10T08:44:13.691Z,31.77
2023-05-10T08:49:21.126Z,31.71
2023-05-10T08:54:23.233Z,31.61
2023-05-10T08:59:25.087Z,32.19
2023-05-10T09:04:27.314Z,30.83
2023-05-10T09:09:29.179Z,31.33
2023-05-10T09:14:35.020Z,31.24
2023-05-10T09:19:36.728Z,30.92
2023-05-10T09:24:43.395Z,30.65
2023-05-10T09:29:45.116Z,30.86
2023-05-10T09:34:51.068Z,29.66
2023-05-10T09:39:55.645Z,29.01
2023-05-10T09:45:02.703Z,28.20
2023-05-10T09:50:05.686Z,29.42
2023-05-10T09:55:08.397Z,29.64
2023-05-10T10:00:13.545Z,29.54
2023-05-10T10:05:16.142Z,29.13
2023-05-10T10:10:18.157Z,30.00
2023-05-10T10:15:21.505Z,30.37
2023-05-10T10:20:24.253Z,30.60
2023-05-10T10:25:26.512Z,31.37
2023-05-10T10:30:36.175Z,30.12
2023-05-10T10:35:38.414Z,29.52
2023-05-10T10:40:40.540Z,30.26
2023-05-10T10:45:42.368Z,30.05
2023-05-10T10:50:47.812Z,29.58
2023-05-10T10:55:49.907Z,28.79
2023-05-10T11:01:09.749Z,29.47
2023-05-10T11:06:11.547Z,29.96
2023-05-10T11:11:16.153Z,30.40
2023-05-10T11:16:26.257Z,29.37
2023-05-10T11:21:28.162Z,27.85
2023-05-10T11:26:35.295Z,28.47
2023-05-10T11:31:44.819Z,28.29
2023-05-10T11:36:52.772Z,26.79
2023-05-10T11:41:55.679Z,26.12
2023-05-10T11:47:02.569Z,26.72
2023-05-10T11:52:06.192Z,26.48
2023-05-10T11:57:07.986Z,25.57
2023-05-10T12:02:09.716Z,25.63
2023-05-10T12:07:11.470Z,26.01
2023-05-10T12:12:19.234Z,26.45
2023-05-10T12:17:20.908Z,26.03
2023-05-10T12:22:22.758Z,24.92
2023-05-10T12:27:24.435Z,24.87
2023-05-10T12:32:44.915Z,25.61
2023-05-10T12:37:46.596Z,26.66
2023-05-10T12:42:49.797Z,26.63
2023-05-10T12:47:51.721Z,27.67
2023-05-10T12:52:53.499Z,26.88
2023-05-10T12:57:55.430Z,26.65
2023-05-10T13:02:57.304Z,27.24
2023-05-10T13:07:59.037Z,26.98
2023-05-10T13:13:00.906Z,27.04
2023-05-10T13:18:02.807Z,25.74
2023-05-10T13:23:04.768Z,23.90
2023-05-10T13:28:06.744Z,23.62
2023-05-10T13:33:08.511Z,24.31
2023-05-10T13:38:10.546Z,25.30
2023-05-10T13:43:12.367Z,25.13
2023-05-10T13:48:14.206Z,24.59
2023-05-10T13:53:16.524Z,25.17
2023-05-10T13:58:18.306Z,25.98
2023-05-10T14:03:20.248Z,26.99
2023-05-10T14:08:22.817Z,27.39
2023-05-10T14:13:24.833Z,27.56
2023-05-10T14:18:26.922Z,28.14
2023-05-10T14:23:29.860Z,28.60
2023-05-10T14:28:31.919Z,28.78
2023-05-10T14:33:33.745Z,29.77
2023-05-10T14:38:35.816Z,29.94
2023-05-10T14:43:37.800Z,30.80
2023-05-10T14:48:39.553Z,29.98
2023-05-10T14:53:41.424Z,28.46
2023-05-10T14:58:43.321Z,27.99
2023-05-10T15:03:45.129Z,28.93
2023-05-10T15:08:47.290Z,30.22
2023-05-10T15:13:49.022Z,30.63
2023-05-10T15:18:50.995Z,31.24
2023-05-10T15:23:53.667Z,31.29
2023-05-10T15:28:55.405Z,31.33
2023-05-10T15:34:00.081Z,32.09
2023-05-10T15:39:01.890Z,32.32
2023-05-10T15:44:04.216Z,32.17
2023-05-10T15:49:06.920Z,32.09
2023-05-10T15:54:09.711Z,31.24
2023-05-10T15:59:11.949Z,28.62
2023-05-10T16:04:14.028Z,27.31
2023-05-10T16:09:16.010Z,26.32
2023-05-10T16:14:17.842Z,24.95
2023-05-10T16:19:19.913Z,25.66
2023-05-10T16:24:21.857Z,26.62
2023-05-10T16:29:23.638Z,27.51
2023-05-10T16:34:25.514Z,27.99
2023-05-10T16:39:27.393Z,27.22
2023-05-10T16:44:29.125Z,26.64
2023-05-10T16:49:30.983Z,26.23
2023-05-10T16:54:32.781Z,26.79
2023-05-10T16:59:34.533Z,27.90
2023-05-10T17:04:36.356Z,29.22
2023-05-10T17:09:38.110Z,30.71
2023-05-10T17:14:40.135Z,31.92
2023-05-10T17:19:44.989Z,32.69
2023-05-10T17:24:46.759Z,33.62
2023-05-10T17:29:48.493Z,34.59
2023-05-10T17:34:50.227Z,35.28
2023-05-10T17:39:52.193Z,35.81
2023-05-10T17:44:54.017Z,35.57
2023-05-10T17:49:56.066Z,35.19
2023-05-10T17:54:58.337Z,34.93
2023-05-10T18:00:00.266Z,35.09
2023-05-10T18:05:03.170Z,35.70
2023-05-10T18:10:06.694Z,36.79
2023-05-10T18:15:09.236Z,37.72
2023-05-10T18:20:11.547Z,38.53
2023-05-10T18:25:13.377Z,39.61
2023-05-10T18:30:15.268Z,40.49
2023-05-10T18:35:17.476Z,41.42
2023-05-10T18:40:19.675Z,42.27
2023-05-10T18:45:21.690Z,43.16
2023-05-10T18:50:23.425Z,43.77
2023-05-10T18:55:28.396Z,44.30
2023-05-10T19:00:30.102Z,45.03
2023-05-10T19:05:31.954Z,45.78
2023-05-10T19:10:33.724Z,46.12
2023-05-10T19:15:38.642Z,46.19
2023-05-10T19:20:42.525Z,46.58
2023-05-10T19:25:46.293Z,46.73
2023-05-10T19:30:50.308Z,46.83
2023-05-10T19:35:53.620Z,47.22
2023-05-10T19:40:58.281Z,47.62
2023-05-10T19:46:02.277Z,47.69
2023-05-10T19:51:07.718Z,47.90
2023-05-10T19:56:11.328Z,47.85
2023-05-10T20:01:13.725Z,47.57
2023-05-10T20:06:15.529Z,47.32
2023-05-10T20:11:17.278Z,47.52
2023-05-10T20:16:18.947Z,47.74
2023-05-10T20:21:22.308Z,48.10
2023-05-10T20:26:24.087Z,48.48
2023-05-10T20:31:25.786Z,48.88
2023-05-10T20:36:27.628Z,49.43
2023-05-10T20:41:29.267Z,49.66
2023-05-10T20:46:31.608Z,50.09
2023-05-10T20:51:33.488Z,50.47
2023-05-10T20:56:35.226Z,50.96
2023-05-10T21:01:36.923Z,51.66
2023-05-10T21:06:39.060Z,52.10
2023-05-10T21:11:41.763Z,52.86
2023-05-10T21:16:44.660Z,53.13
2023-05-10T21:21:46.522Z,53.50
2023-05-10T21:26:48.275Z,53.46
2023-05-10T21:31:51.097Z,53.63
2023-05-10T21:36:54.533Z,53.90
2023-05-10T21:41:56.966Z,53.87
2023-05-10T21:47:01.195Z,54.12
2023-05-10T21:52:04.678Z,54.00
2023-05-10T21:57:06.334Z,54.45
2023-05-10T22:02:08.257Z,54.19
2023-05-10T22:07:10.151Z,54.94
2023-05-10T22:12:12.986Z,55.08
2023-05-10T22:17:14.922Z,55.98
2023-05-10T22:22:16.853Z,56.13
2023-05-10T22:27:18.575Z,56.07
2023-05-10T22:32:20.249Z,56.43
2023-05-10T22:37:21.975Z,56.16
2023-05-10T22:42:23.597Z,55.79
2023-05-10T22:47:25.657Z,56.26
2023-05-10T22:52:27.492Z,57.06
2023-05-10T22:57:29.214Z,57.45
2023-05-10T23:02:31.715Z,57.90
2023-05-10T23:07:34.478Z,58.16
2023-05-10T23:12:38.692Z,58.74
2023-05-10T23:17:42.605Z,58.89
2023-05-10T23:22:44.871Z,59.32
2023-05-10T23:27:46.676Z,59.39
2023-05-10T23:32:48.401Z,60.14
2023-05-10T23:37:50.588Z,60.04
2023-05-10T23:42:53.712Z,59.91
2023-05-10T23:47:56.709Z,60.18
2023-05-10T23:52:58.621Z,60.37
2023-05-10T23:58:00.544Z,59.90
